sensor_id;sensor_type;location;lat;lon;timestamp;P1;durP1;ratioP1;P2;durP2;ratioP2
22172;SDS011;11252;50.596;17.648;2023-04-24T00:00:30;15.67;;;12.20;;
22172;SDS011;11252;50.596;17.648;2023-04-24T00:02:58;15.00;;;12.33;;
22172;SDS011;11252;50.596;17.648;2023-04-24T00:05:25;13.10;;;11.70;;
22172;SDS011;11252;50.596;17.648;2023-04-24T00:07:52;14.37;;;12.87;;
22172;SDS011;11252;50.596;17.648;2023-04-24T00:10:21;19.07;;;14.17;;
22172;SDS011;11252;50.596;17.648;2023-04-24T00:12:49;19.07;;;13.87;;
22172;SDS011;11252;50.596;17.648;2023-04-24T00:15:16;19.13;;;13.00;;
22172;SDS011;11252;50.596;17.648;2023-04-24T00:17:44;15.73;;;13.47;;
22172;SDS011;11252;50.596;17.648;2023-04-24T00:20:11;14.73;;;12.80;;
22172;SDS011;11252;50.596;17.648;2023-04-24T00:22:39;15.30;;;13.67;;
22172;SDS011;11252;50.596;17.648;2023-04-24T00:25:07;18.17;;;13.17;;
22172;SDS011;11252;50.596;17.648;2023-04-24T00:27:34;15.47;;;13.07;;
22172;SDS011;11252;50.596;17.648;2023-04-24T00:30:03;16.43;;;11.70;;
22172;SDS011;11252;50.596;17.648;2023-04-24T00:32:31;13.87;;;11.70;;
22172;SDS011;11252;50.596;17.648;2023-04-24T00:34:59;15.57;;;13.43;;
22172;SDS011;11252;50.596;17.648;2023-04-24T00:37:26;16.43;;;12.10;;
22172;SDS011;11252;50.596;17.648;2023-04-24T00:39:53;18.57;;;14.37;;
22172;SDS011;11252;50.596;17.648;2023-04-24T00:42:21;19.27;;;12.10;;
22172;SDS011;11252;50.596;17.648;2023-04-24T00:44:49;20.03;;;14.27;;
22172;SDS011;11252;50.596;17.648;2023-04-24T00:47:17;16.00;;;13.20;;
22172;SDS011;11252;50.596;17.648;2023-04-24T00:49:46;18.70;;;14.30;;
22172;SDS011;11252;50.596;17.648;2023-04-24T00:52:13;15.73;;;13.40;;
22172;SDS011;11252;50.596;17.648;2023-04-24T00:54:44;14.47;;;12.53;;
22172;SDS011;11252;50.596;17.648;2023-04-24T00:57:14;16.40;;;11.73;;
22172;SDS011;11252;50.596;17.648;2023-04-24T00:59:42;13.03;;;11.53;;
22172;SDS011;11252;50.596;17.648;2023-04-24T01:02:10;18.40;;;10.97;;
22172;SDS011;11252;50.596;17.648;2023-04-24T01:04:38;12.50;;;9.40;;
22172;SDS011;11252;50.596;17.648;2023-04-24T01:07:08;15.17;;;9.83;;
22172;SDS011;11252;50.596;17.648;2023-04-24T01:09:38;11.70;;;9.97;;
22172;SDS011;11252;50.596;17.648;2023-04-24T01:12:09;17.60;;;9.00;;
22172;SDS011;11252;50.596;17.648;2023-04-24T01:14:40;9.07;;;8.17;;
22172;SDS011;11252;50.596;17.648;2023-04-24T01:17:07;11.00;;;8.43;;
22172;SDS011;11252;50.596;17.648;2023-04-24T01:19:36;14.30;;;8.87;;
22172;SDS011;11252;50.596;17.648;2023-04-24T01:22:08;9.57;;;8.57;;
22172;SDS011;11252;50.596;17.648;2023-04-24T01:24:43;11.67;;;7.90;;
22172;SDS011;11252;50.596;17.648;2023-04-24T01:27:10;11.27;;;7.70;;
22172;SDS011;11252;50.596;17.648;2023-04-24T01:29:38;10.90;;;7.87;;
22172;SDS011;11252;50.596;17.648;2023-04-24T01:32:06;9.30;;;7.50;;
22172;SDS011;11252;50.596;17.648;2023-04-24T01:34:34;11.43;;;7.83;;
22172;SDS011;11252;50.596;17.648;2023-04-24T01:37:01;8.00;;;7.20;;
22172;SDS011;11252;50.596;17.648;2023-04-24T01:39:28;11.47;;;7.73;;
22172;SDS011;11252;50.596;17.648;2023-04-24T01:41:55;8.40;;;7.00;;
22172;SDS011;11252;50.596;17.648;2023-04-24T01:44:23;11.00;;;7.97;;
22172;SDS011;11252;50.596;17.648;2023-04-24T01:46:51;10.27;;;7.80;;
22172;SDS011;11252;50.596;17.648;2023-04-24T01:49:20;8.83;;;6.93;;
22172;SDS011;11252;50.596;17.648;2023-04-24T01:51:48;7.90;;;7.03;;
22172;SDS011;11252;50.596;17.648;2023-04-24T01:54:15;10.10;;;7.87;;
22172;SDS011;11252;50.596;17.648;2023-04-24T01:56:42;11.33;;;6.80;;
22172;SDS011;11252;50.596;17.648;2023-04-24T01:59:10;8.07;;;6.90;;
22172;SDS011;11252;50.596;17.648;2023-04-24T02:01:38;15.03;;;7.67;;
22172;SDS011;11252;50.596;17.648;2023-04-24T02:04:07;13.33;;;8.03;;
22172;SDS011;11252;50.596;17.648;2023-04-24T02:06:35;10.00;;;8.03;;
22172;SDS011;11252;50.596;17.648;2023-04-24T02:09:03;7.63;;;6.83;;
22172;SDS011;11252;50.596;17.648;2023-04-24T02:11:30;7.47;;;6.70;;
22172;SDS011;11252;50.596;17.648;2023-04-24T02:13:58;11.00;;;6.97;;
22172;SDS011;11252;50.596;17.648;2023-04-24T02:16:28;8.23;;;6.50;;
22172;SDS011;11252;50.596;17.648;2023-04-24T02:18:59;8.40;;;5.97;;
22172;SDS011;11252;50.596;17.648;2023-04-24T02:21:27;7.43;;;6.53;;
22172;SDS011;11252;50.596;17.648;2023-04-24T02:23:54;10.73;;;6.57;;
22172;SDS011;11252;50.596;17.648;2023-04-24T02:26:22;10.53;;;6.50;;
22172;SDS011;11252;50.596;17.648;2023-04-24T02:28:49;9.77;;;7.13;;
22172;SDS011;11252;50.596;17.648;2023-04-24T02:31:17;8.67;;;6.77;;
22172;SDS011;11252;50.596;17.648;2023-04-24T02:33:44;11.33;;;7.07;;
22172;SDS011;11252;50.596;17.648;2023-04-24T02:36:12;9.73;;;7.07;;
22172;SDS011;11252;50.596;17.648;2023-04-24T02:38:39;9.90;;;6.10;;
22172;SDS011;11252;50.596;17.648;2023-04-24T02:41:07;8.97;;;6.60;;
22172;SDS011;11252;50.596;17.648;2023-04-24T02:43:34;8.07;;;6.23;;
22172;SDS011;11252;50.596;17.648;2023-04-24T02:46:01;8.43;;;6.60;;
22172;SDS011;11252;50.596;17.648;2023-04-24T02:48:29;12.70;;;6.57;;
22172;SDS011;11252;50.596;17.648;2023-04-24T02:50:56;7.93;;;6.53;;
22172;SDS011;11252;50.596;17.648;2023-04-24T02:53:24;8.50;;;6.20;;
22172;SDS011;11252;50.596;17.648;2023-04-24T02:55:51;7.17;;;6.30;;
22172;SDS011;11252;50.596;17.648;2023-04-24T02:58:19;7.10;;;6.20;;
22172;SDS011;11252;50.596;17.648;2023-04-24T03:00:46;8.57;;;6.00;;
22172;SDS011;11252;50.596;17.648;2023-04-24T03:03:14;11.73;;;6.67;;
22172;SDS011;11252;50.596;17.648;2023-04-24T03:05:42;15.73;;;7.57;;
22172;SDS011;11252;50.596;17.648;2023-04-24T03:08:09;8.00;;;6.87;;
22172;SDS011;11252;50.596;17.648;2023-04-24T03:10:41;12.03;;;7.57;;
22172;SDS011;11252;50.596;17.648;2023-04-24T03:13:08;9.87;;;7.43;;
22172;SDS011;11252;50.596;17.648;2023-04-24T03:15:35;9.50;;;6.83;;
22172;SDS011;11252;50.596;17.648;2023-04-24T03:18:03;11.03;;;7.10;;
22172;SDS011;11252;50.596;17.648;2023-04-24T03:20:30;9.80;;;6.70;;
22172;SDS011;11252;50.596;17.648;2023-04-24T03:22:57;8.87;;;6.73;;
22172;SDS011;11252;50.596;17.648;2023-04-24T03:25:24;10.33;;;7.20;;
22172;SDS011;11252;50.596;17.648;2023-04-24T03:27:52;10.50;;;7.23;;
22172;SDS011;11252;50.596;17.648;2023-04-24T03:30:21;9.10;;;7.20;;
22172;SDS011;11252;50.596;17.648;2023-04-24T03:32:48;9.10;;;7.47;;
22172;SDS011;11252;50.596;17.648;2023-04-24T03:35:15;9.93;;;6.80;;
22172;SDS011;11252;50.596;17.648;2023-04-24T03:37:43;9.83;;;7.27;;
22172;SDS011;11252;50.596;17.648;2023-04-24T03:40:10;11.20;;;7.97;;
22172;SDS011;11252;50.596;17.648;2023-04-24T03:42:38;11.20;;;8.30;;
22172;SDS011;11252;50.596;17.648;2023-04-24T03:45:05;8.67;;;7.30;;
22172;SDS011;11252;50.596;17.648;2023-04-24T03:47:33;12.10;;;7.80;;
22172;SDS011;11252;50.596;17.648;2023-04-24T03:50:01;9.80;;;7.37;;
22172;SDS011;11252;50.596;17.648;2023-04-24T03:52:28;8.80;;;7.30;;
22172;SDS011;11252;50.596;17.648;2023-04-24T03:54:55;10.07;;;7.27;;
22172;SDS011;11252;50.596;17.648;2023-04-24T03:57:22;9.57;;;7.13;;
22172;SDS011;11252;50.596;17.648;2023-04-24T03:59:49;8.27;;;6.83;;
22172;SDS011;11252;50.596;17.648;2023-04-24T04:02:17;12.47;;;7.27;;
22172;SDS011;11252;50.596;17.648;2023-04-24T04:04:45;10.83;;;6.83;;
22172;SDS011;11252;50.596;17.648;2023-04-24T04:07:13;11.67;;;7.23;;
22172;SDS011;11252;50.596;17.648;2023-04-24T04:09:40;13.83;;;7.67;;
22172;SDS011;11252;50.596;17.648;2023-04-24T04:12:07;9.23;;;6.70;;
22172;SDS011;11252;50.596;17.648;2023-04-24T04:14:35;9.40;;;6.80;;
22172;SDS011;11252;50.596;17.648;2023-04-24T04:17:02;10.63;;;6.90;;
22172;SDS011;11252;50.596;17.648;2023-04-24T04:19:30;13.30;;;7.40;;
22172;SDS011;11252;50.596;17.648;2023-04-24T04:21:58;11.53;;;7.23;;
22172;SDS011;11252;50.596;17.648;2023-04-24T04:24:29;8.27;;;6.50;;
22172;SDS011;11252;50.596;17.648;2023-04-24T04:26:56;13.13;;;7.30;;
22172;SDS011;11252;50.596;17.648;2023-04-24T04:29:25;10.63;;;6.77;;
22172;SDS011;11252;50.596;17.648;2023-04-24T04:31:53;14.27;;;9.70;;
22172;SDS011;11252;50.596;17.648;2023-04-24T04:34:21;10.13;;;6.73;;
22172;SDS011;11252;50.596;17.648;2023-04-24T04:36:49;11.13;;;7.53;;
22172;SDS011;11252;50.596;17.648;2023-04-24T04:39:16;12.40;;;9.43;;
22172;SDS011;11252;50.596;17.648;2023-04-24T04:41:45;10.47;;;7.07;;
22172;SDS011;11252;50.596;17.648;2023-04-24T04:44:15;10.10;;;6.60;;
22172;SDS011;11252;50.596;17.648;2023-04-24T04:46:42;13.07;;;7.27;;
22172;SDS011;11252;50.596;17.648;2023-04-24T04:49:11;25.80;;;17.43;;
22172;SDS011;11252;50.596;17.648;2023-04-24T04:51:38;10.93;;;6.70;;
22172;SDS011;11252;50.596;17.648;2023-04-24T04:54:08;6.57;;;5.87;;
22172;SDS011;11252;50.596;17.648;2023-04-24T04:56:36;10.20;;;6.63;;
22172;SDS011;11252;50.596;17.648;2023-04-24T04:59:05;11.73;;;6.30;;
22172;SDS011;11252;50.596;17.648;2023-04-24T05:01:32;8.93;;;6.43;;
22172;SDS011;11252;50.596;17.648;2023-04-24T05:04:00;7.33;;;6.20;;
22172;SDS011;11252;50.596;17.648;2023-04-24T05:06:28;7.20;;;5.77;;
22172;SDS011;11252;50.596;17.648;2023-04-24T05:08:55;8.70;;;5.87;;
22172;SDS011;11252;50.596;17.648;2023-04-24T05:11:23;7.33;;;5.23;;
22172;SDS011;11252;50.596;17.648;2023-04-24T05:13:51;8.03;;;5.30;;
22172;SDS011;11252;50.596;17.648;2023-04-24T05:16:18;11.17;;;5.80;;
22172;SDS011;11252;50.596;17.648;2023-04-24T05:18:45;11.33;;;6.00;;
22172;SDS011;11252;50.596;17.648;2023-04-24T05:21:12;19.33;;;6.40;;
22172;SDS011;11252;50.596;17.648;2023-04-24T05:23:40;29.67;;;7.23;;
22172;SDS011;11252;50.596;17.648;2023-04-24T05:26:07;45.23;;;13.93;;
22172;SDS011;11252;50.596;17.648;2023-04-24T05:28:34;21.83;;;8.27;;
22172;SDS011;11252;50.596;17.648;2023-04-24T05:31:03;21.30;;;8.30;;
22172;SDS011;11252;50.596;17.648;2023-04-24T05:33:30;18.80;;;7.00;;
22172;SDS011;11252;50.596;17.648;2023-04-24T05:35:58;20.17;;;8.30;;
22172;SDS011;11252;50.596;17.648;2023-04-24T05:38:25;10.50;;;6.63;;
22172;SDS011;11252;50.596;17.648;2023-04-24T05:40:52;23.07;;;10.10;;
22172;SDS011;11252;50.596;17.648;2023-04-24T05:43:20;26.93;;;9.73;;
22172;SDS011;11252;50.596;17.648;2023-04-24T05:45:48;22.87;;;7.00;;
22172;SDS011;11252;50.596;17.648;2023-04-24T05:48:16;19.90;;;6.90;;
22172;SDS011;11252;50.596;17.648;2023-04-24T05:50:43;19.97;;;6.30;;
22172;SDS011;11252;50.596;17.648;2023-04-24T05:53:11;14.13;;;6.07;;
22172;SDS011;11252;50.596;17.648;2023-04-24T05:55:38;12.03;;;7.27;;
22172;SDS011;11252;50.596;17.648;2023-04-24T05:58:05;13.57;;;7.57;;
22172;SDS011;11252;50.596;17.648;2023-04-24T06:00:33;11.40;;;5.57;;
22172;SDS011;11252;50.596;17.648;2023-04-24T06:03:01;13.83;;;8.40;;
22172;SDS011;11252;50.596;17.648;2023-04-24T06:05:31;9.07;;;5.37;;
22172;SDS011;11252;50.596;17.648;2023-04-24T06:07:58;18.60;;;11.27;;
22172;SDS011;11252;50.596;17.648;2023-04-24T06:10:25;8.63;;;6.03;;
22172;SDS011;11252;50.596;17.648;2023-04-24T06:12:52;9.20;;;5.90;;
22172;SDS011;11252;50.596;17.648;2023-04-24T06:15:22;7.47;;;5.90;;
22172;SDS011;11252;50.596;17.648;2023-04-24T06:17:50;7.03;;;5.60;;
22172;SDS011;11252;50.596;17.648;2023-04-24T06:20:17;11.53;;;6.30;;
22172;SDS011;11252;50.596;17.648;2023-04-24T06:22:45;10.93;;;5.77;;
22172;SDS011;11252;50.596;17.648;2023-04-24T06:25:12;7.83;;;6.23;;
22172;SDS011;11252;50.596;17.648;2023-04-24T06:27:40;10.17;;;5.83;;
22172;SDS011;11252;50.596;17.648;2023-04-24T06:30:07;10.00;;;6.47;;
22172;SDS011;11252;50.596;17.648;2023-04-24T06:32:35;9.50;;;6.73;;
22172;SDS011;11252;50.596;17.648;2023-04-24T06:35:03;13.37;;;8.67;;
22172;SDS011;11252;50.596;17.648;2023-04-24T06:37:32;13.57;;;8.90;;
22172;SDS011;11252;50.596;17.648;2023-04-24T06:40:00;11.37;;;7.03;;
22172;SDS011;11252;50.596;17.648;2023-04-24T06:42:28;10.67;;;6.77;;
22172;SDS011;11252;50.596;17.648;2023-04-24T06:44:55;9.67;;;6.83;;
22172;SDS011;11252;50.596;17.648;2023-04-24T06:47:22;13.00;;;6.67;;
22172;SDS011;11252;50.596;17.648;2023-04-24T06:49:50;9.73;;;6.57;;
22172;SDS011;11252;50.596;17.648;2023-04-24T06:52:19;6.43;;;5.23;;
22172;SDS011;11252;50.596;17.648;2023-04-24T06:54:46;9.17;;;6.17;;
22172;SDS011;11252;50.596;17.648;2023-04-24T06:57:14;12.13;;;7.00;;
22172;SDS011;11252;50.596;17.648;2023-04-24T06:59:43;7.23;;;5.90;;
22172;SDS011;11252;50.596;17.648;2023-04-24T07:02:11;7.13;;;6.30;;
22172;SDS011;11252;50.596;17.648;2023-04-24T07:04:38;8.23;;;5.90;;
22172;SDS011;11252;50.596;17.648;2023-04-24T07:07:07;9.00;;;6.37;;
22172;SDS011;11252;50.596;17.648;2023-04-24T07:09:36;8.30;;;5.80;;
22172;SDS011;11252;50.596;17.648;2023-04-24T07:12:05;9.63;;;5.67;;
22172;SDS011;11252;50.596;17.648;2023-04-24T07:14:32;6.40;;;5.70;;
22172;SDS011;11252;50.596;17.648;2023-04-24T07:16:59;10.63;;;6.30;;
22172;SDS011;11252;50.596;17.648;2023-04-24T07:19:30;8.50;;;6.77;;
22172;SDS011;11252;50.596;17.648;2023-04-24T07:21:59;7.37;;;5.30;;
22172;SDS011;11252;50.596;17.648;2023-04-24T07:24:26;7.90;;;6.07;;
22172;SDS011;11252;50.596;17.648;2023-04-24T07:26:56;5.57;;;5.00;;
22172;SDS011;11252;50.596;17.648;2023-04-24T07:29:23;7.17;;;5.70;;
22172;SDS011;11252;50.596;17.648;2023-04-24T07:31:50;7.93;;;5.40;;
22172;SDS011;11252;50.596;17.648;2023-04-24T07:34:17;11.60;;;6.90;;
22172;SDS011;11252;50.596;17.648;2023-04-24T07:36:45;11.07;;;6.20;;
22172;SDS011;11252;50.596;17.648;2023-04-24T07:39:13;10.87;;;6.03;;
22172;SDS011;11252;50.596;17.648;2023-04-24T07:41:40;14.83;;;6.60;;
22172;SDS011;11252;50.596;17.648;2023-04-24T07:44:08;7.07;;;5.33;;
22172;SDS011;11252;50.596;17.648;2023-04-24T07:46:35;6.63;;;4.77;;
22172;SDS011;11252;50.596;17.648;2023-04-24T07:49:02;7.13;;;5.73;;
22172;SDS011;11252;50.596;17.648;2023-04-24T07:51:39;10.27;;;5.70;;
22172;SDS011;11252;50.596;17.648;2023-04-24T07:54:08;5.87;;;5.13;;
22172;SDS011;11252;50.596;17.648;2023-04-24T07:56:36;6.50;;;5.23;;
22172;SDS011;11252;50.596;17.648;2023-04-24T07:59:06;6.03;;;5.00;;
22172;SDS011;11252;50.596;17.648;2023-04-24T08:01:33;7.13;;;4.73;;
22172;SDS011;11252;50.596;17.648;2023-04-24T08:04:01;5.93;;;4.60;;
22172;SDS011;11252;50.596;17.648;2023-04-24T08:06:28;8.43;;;4.80;;
22172;SDS011;11252;50.596;17.648;2023-04-24T08:08:57;6.23;;;4.80;;
22172;SDS011;11252;50.596;17.648;2023-04-24T08:11:27;7.10;;;4.30;;
22172;SDS011;11252;50.596;17.648;2023-04-24T08:13:54;5.13;;;4.37;;
22172;SDS011;11252;50.596;17.648;2023-04-24T08:16:22;4.90;;;3.73;;
22172;SDS011;11252;50.596;17.648;2023-04-24T08:18:52;4.30;;;3.90;;
22172;SDS011;11252;50.596;17.648;2023-04-24T08:21:20;3.77;;;3.47;;
22172;SDS011;11252;50.596;17.648;2023-04-24T08:23:48;5.07;;;3.77;;
22172;SDS011;11252;50.596;17.648;2023-04-24T08:26:16;6.13;;;4.43;;
22172;SDS011;11252;50.596;17.648;2023-04-24T08:28:43;4.88;;;3.97;;
22172;SDS011;11252;50.596;17.648;2023-04-24T08:31:11;4.93;;;3.80;;
22172;SDS011;11252;50.596;17.648;2023-04-24T08:33:38;5.60;;;3.70;;
22172;SDS011;11252;50.596;17.648;2023-04-24T08:36:07;5.60;;;4.13;;
22172;SDS011;11252;50.596;17.648;2023-04-24T08:38:34;6.17;;;4.17;;
22172;SDS011;11252;50.596;17.648;2023-04-24T08:41:02;7.13;;;4.10;;
22172;SDS011;11252;50.596;17.648;2023-04-24T08:43:31;4.33;;;3.80;;
22172;SDS011;11252;50.596;17.648;2023-04-24T08:46:01;4.43;;;3.83;;
22172;SDS011;11252;50.596;17.648;2023-04-24T08:48:33;5.40;;;4.37;;
22172;SDS011;11252;50.596;17.648;2023-04-24T08:51:01;5.87;;;4.77;;
22172;SDS011;11252;50.596;17.648;2023-04-24T08:53:32;5.20;;;4.70;;
22172;SDS011;11252;50.596;17.648;2023-04-24T08:56:02;9.17;;;6.40;;
22172;SDS011;11252;50.596;17.648;2023-04-24T08:58:29;6.47;;;4.80;;
22172;SDS011;11252;50.596;17.648;2023-04-24T09:00:58;8.47;;;5.83;;
22172;SDS011;11252;50.596;17.648;2023-04-24T09:03:27;5.53;;;4.73;;
22172;SDS011;11252;50.596;17.648;2023-04-24T09:05:55;4.90;;;4.50;;
22172;SDS011;11252;50.596;17.648;2023-04-24T09:08:24;4.93;;;4.43;;
22172;SDS011;11252;50.596;17.648;2023-04-24T09:10:53;5.63;;;4.70;;
22172;SDS011;11252;50.596;17.648;2023-04-24T09:13:20;4.90;;;4.40;;
22172;SDS011;11252;50.596;17.648;2023-04-24T09:15:47;5.03;;;4.53;;
22172;SDS011;11252;50.596;17.648;2023-04-24T09:18:15;5.30;;;4.40;;
22172;SDS011;11252;50.596;17.648;2023-04-24T09:21:00;5.77;;;4.53;;
22172;SDS011;11252;50.596;17.648;2023-04-24T09:23:29;9.73;;;4.20;;
22172;SDS011;11252;50.596;17.648;2023-04-24T09:25:59;5.50;;;3.40;;
22172;SDS011;11252;50.596;17.648;2023-04-24T09:28:38;4.43;;;4.03;;
22172;SDS011;11252;50.596;17.648;2023-04-24T09:31:11;4.40;;;3.73;;
22172;SDS011;11252;50.596;17.648;2023-04-24T09:36:47;6.17;;;3.40;;
22172;SDS011;11252;50.596;17.648;2023-04-24T09:39:15;6.13;;;4.20;;
22172;SDS011;11252;50.596;17.648;2023-04-24T09:41:47;6.47;;;4.33;;
22172;SDS011;11252;50.596;17.648;2023-04-24T09:46:54;6.07;;;4.07;;
22172;SDS011;11252;50.596;17.648;2023-04-24T09:49:23;6.43;;;4.28;;
22172;SDS011;11252;50.596;17.648;2023-04-24T09:52:05;5.47;;;4.00;;
22172;SDS011;11252;50.596;17.648;2023-04-24T09:54:33;4.20;;;3.80;;
22172;SDS011;11252;50.596;17.648;2023-04-24T09:57:03;4.00;;;3.27;;
22172;SDS011;11252;50.596;17.648;2023-04-24T09:59:32;3.90;;;3.57;;
22172;SDS011;11252;50.596;17.648;2023-04-24T10:02:16;4.60;;;3.57;;
22172;SDS011;11252;50.596;17.648;2023-04-24T10:04:53;4.33;;;3.80;;
22172;SDS011;11252;50.596;17.648;2023-04-24T10:07:25;4.20;;;3.80;;
22172;SDS011;11252;50.596;17.648;2023-04-24T10:09:53;5.37;;;3.80;;
22172;SDS011;11252;50.596;17.648;2023-04-24T10:12:21;5.03;;;3.70;;
22172;SDS011;11252;50.596;17.648;2023-04-24T10:14:50;3.90;;;3.60;;
22172;SDS011;11252;50.596;17.648;2023-04-24T10:17:17;4.83;;;3.77;;
22172;SDS011;11252;50.596;17.648;2023-04-24T10:19:47;9.03;;;4.53;;
22172;SDS011;11252;50.596;17.648;2023-04-24T10:22:16;5.30;;;4.67;;
22172;SDS011;11252;50.596;17.648;2023-04-24T10:24:45;4.40;;;3.43;;
22172;SDS011;11252;50.596;17.648;2023-04-24T10:27:13;5.50;;;4.37;;
22172;SDS011;11252;50.596;17.648;2023-04-24T10:29:41;6.80;;;4.43;;
22172;SDS011;11252;50.596;17.648;2023-04-24T10:32:11;5.30;;;4.87;;
22172;SDS011;11252;50.596;17.648;2023-04-24T10:34:38;5.57;;;4.93;;
22172;SDS011;11252;50.596;17.648;2023-04-24T10:37:06;4.80;;;4.40;;
22172;SDS011;11252;50.596;17.648;2023-04-24T10:39:33;8.13;;;5.43;;
22172;SDS011;11252;50.596;17.648;2023-04-24T10:42:01;5.90;;;5.40;;
22172;SDS011;11252;50.596;17.648;2023-04-24T10:44:41;5.70;;;5.00;;
22172;SDS011;11252;50.596;17.648;2023-04-24T10:47:12;6.40;;;5.67;;
22172;SDS011;11252;50.596;17.648;2023-04-24T10:49:43;6.70;;;6.10;;
22172;SDS011;11252;50.596;17.648;2023-04-24T10:52:10;9.43;;;5.70;;
22172;SDS011;11252;50.596;17.648;2023-04-24T10:59:50;11.00;;;7.80;;
22172;SDS011;11252;50.596;17.648;2023-04-24T11:02:56;10.20;;;9.10;;
22172;SDS011;11252;50.596;17.648;2023-04-24T11:05:48;7.83;;;6.83;;
22172;SDS011;11252;50.596;17.648;2023-04-24T11:08:39;8.07;;;7.27;;
22172;SDS011;11252;50.596;17.648;2023-04-24T11:11:14;7.97;;;7.23;;
22172;SDS011;11252;50.596;17.648;2023-04-24T11:16:35;8.67;;;7.87;;
22172;SDS011;11252;50.596;17.648;2023-04-24T11:19:09;10.27;;;8.47;;
22172;SDS011;11252;50.596;17.648;2023-04-24T11:21:55;10.30;;;7.87;;
22172;SDS011;11252;50.596;17.648;2023-04-24T11:24:48;9.30;;;8.40;;
22172;SDS011;11252;50.596;17.648;2023-04-24T11:27:18;9.97;;;8.57;;
22172;SDS011;11252;50.596;17.648;2023-04-24T11:32:33;10.17;;;9.17;;
22172;SDS011;11252;50.596;17.648;2023-04-24T11:35:14;9.80;;;8.80;;
22172;SDS011;11252;50.596;17.648;2023-04-24T11:37:47;12.07;;;9.50;;
22172;SDS011;11252;50.596;17.648;2023-04-24T11:40:19;10.40;;;9.37;;
22172;SDS011;11252;50.596;17.648;2023-04-24T11:42:49;10.97;;;9.97;;
22172;SDS011;11252;50.596;17.648;2023-04-24T11:45:22;12.00;;;10.40;;
22172;SDS011;11252;50.596;17.648;2023-04-24T11:47:51;11.93;;;10.77;;
22172;SDS011;11252;50.596;17.648;2023-04-24T11:50:20;13.40;;;11.07;;
22172;SDS011;11252;50.596;17.648;2023-04-24T11:52:50;11.13;;;10.13;;
22172;SDS011;11252;50.596;17.648;2023-04-24T11:57:45;12.27;;;10.30;;
22172;SDS011;11252;50.596;17.648;2023-04-24T12:00:18;12.40;;;10.87;;
22172;SDS011;11252;50.596;17.648;2023-04-24T12:02:50;11.30;;;10.20;;
22172;SDS011;11252;50.596;17.648;2023-04-24T12:05:27;11.67;;;10.63;;
22172;SDS011;11252;50.596;17.648;2023-04-24T12:07:58;19.20;;;17.13;;
22172;SDS011;11252;50.596;17.648;2023-04-24T12:10:27;14.40;;;12.90;;
22172;SDS011;11252;50.596;17.648;2023-04-24T12:12:56;18.17;;;15.47;;
22172;SDS011;11252;50.596;17.648;2023-04-24T12:15:24;15.33;;;11.63;;
22172;SDS011;11252;50.596;17.648;2023-04-24T12:17:52;13.17;;;10.57;;
22172;SDS011;11252;50.596;17.648;2023-04-24T12:20:24;12.47;;;11.17;;
22172;SDS011;11252;50.596;17.648;2023-04-24T12:22:56;14.77;;;11.67;;
22172;SDS011;11252;50.596;17.648;2023-04-24T12:25:25;16.70;;;11.13;;
22172;SDS011;11252;50.596;17.648;2023-04-24T12:30:32;12.97;;;11.73;;
22172;SDS011;11252;50.596;17.648;2023-04-24T12:33:02;12.83;;;11.57;;
22172;SDS011;11252;50.596;17.648;2023-04-24T12:35:31;12.27;;;10.80;;
22172;SDS011;11252;50.596;17.648;2023-04-24T12:38:07;12.33;;;11.13;;
22172;SDS011;11252;50.596;17.648;2023-04-24T12:40:40;13.70;;;12.03;;
22172;SDS011;11252;50.596;17.648;2023-04-24T12:43:17;12.00;;;10.87;;
22172;SDS011;11252;50.596;17.648;2023-04-24T12:45:47;14.07;;;11.20;;
22172;SDS011;11252;50.596;17.648;2023-04-24T12:48:15;11.17;;;10.07;;
22172;SDS011;11252;50.596;17.648;2023-04-24T12:50:43;12.83;;;10.67;;
22172;SDS011;11252;50.596;17.648;2023-04-24T12:53:12;14.00;;;12.17;;
22172;SDS011;11252;50.596;17.648;2023-04-24T12:55:40;14.03;;;11.23;;
22172;SDS011;11252;50.596;17.648;2023-04-24T12:58:07;12.97;;;9.80;;
22172;SDS011;11252;50.596;17.648;2023-04-24T13:00:35;11.27;;;10.27;;
22172;SDS011;11252;50.596;17.648;2023-04-24T13:03:03;10.53;;;9.60;;
22172;SDS011;11252;50.596;17.648;2023-04-24T13:05:31;15.00;;;10.47;;
22172;SDS011;11252;50.596;17.648;2023-04-24T13:07:58;11.83;;;10.17;;
22172;SDS011;11252;50.596;17.648;2023-04-24T13:10:26;13.07;;;11.77;;
22172;SDS011;11252;50.596;17.648;2023-04-24T13:12:54;15.13;;;13.50;;
22172;SDS011;11252;50.596;17.648;2023-04-24T13:15:21;12.23;;;10.87;;
22172;SDS011;11252;50.596;17.648;2023-04-24T13:17:50;12.83;;;10.40;;
22172;SDS011;11252;50.596;17.648;2023-04-24T13:20:18;11.77;;;10.70;;
22172;SDS011;11252;50.596;17.648;2023-04-24T13:22:46;12.00;;;10.80;;
22172;SDS011;11252;50.596;17.648;2023-04-24T13:25:13;11.70;;;10.60;;
22172;SDS011;11252;50.596;17.648;2023-04-24T13:27:43;13.67;;;11.33;;
22172;SDS011;11252;50.596;17.648;2023-04-24T13:30:11;14.40;;;11.77;;
22172;SDS011;11252;50.596;17.648;2023-04-24T13:32:39;13.30;;;11.87;;
22172;SDS011;11252;50.596;17.648;2023-04-24T13:35:07;15.53;;;12.97;;
22172;SDS011;11252;50.596;17.648;2023-04-24T13:37:34;18.63;;;16.47;;
22172;SDS011;11252;50.596;17.648;2023-04-24T13:40:02;25.60;;;22.17;;
22172;SDS011;11252;50.596;17.648;2023-04-24T13:42:33;32.57;;;28.37;;
22172;SDS011;11252;50.596;17.648;2023-04-24T13:45:00;26.90;;;22.10;;
22172;SDS011;11252;50.596;17.648;2023-04-24T13:47:48;50.83;;;43.37;;
22172;SDS011;11252;50.596;17.648;2023-04-24T13:50:17;23.97;;;21.63;;
22172;SDS011;11252;50.596;17.648;2023-04-24T13:52:44;41.43;;;34.10;;
22172;SDS011;11252;50.596;17.648;2023-04-24T13:55:12;48.20;;;35.97;;
22172;SDS011;11252;50.596;17.648;2023-04-24T13:57:39;39.97;;;31.27;;
22172;SDS011;11252;50.596;17.648;2023-04-24T14:00:07;30.13;;;24.93;;
22172;SDS011;11252;50.596;17.648;2023-04-24T14:02:37;23.37;;;20.87;;
22172;SDS011;11252;50.596;17.648;2023-04-24T14:05:04;127.53;;;84.50;;
22172;SDS011;11252;50.596;17.648;2023-04-24T14:07:33;39.53;;;31.07;;
22172;SDS011;11252;50.596;17.648;2023-04-24T14:10:00;80.97;;;56.07;;
22172;SDS011;11252;50.596;17.648;2023-04-24T14:12:28;42.70;;;33.07;;
22172;SDS011;11252;50.596;17.648;2023-04-24T14:14:56;68.97;;;51.67;;
22172;SDS011;11252;50.596;17.648;2023-04-24T14:17:23;62.87;;;52.13;;
22172;SDS011;11252;50.596;17.648;2023-04-24T14:19:51;39.87;;;32.80;;
22172;SDS011;11252;50.596;17.648;2023-04-24T14:22:19;28.57;;;25.67;;
22172;SDS011;11252;50.596;17.648;2023-04-24T14:24:46;26.23;;;22.63;;
22172;SDS011;11252;50.596;17.648;2023-04-24T14:27:14;122.03;;;81.53;;
22172;SDS011;11252;50.596;17.648;2023-04-24T14:29:41;110.50;;;77.50;;
22172;SDS011;11252;50.596;17.648;2023-04-24T14:32:08;168.03;;;124.93;;
22172;SDS011;11252;50.596;17.648;2023-04-24T14:34:35;113.47;;;101.43;;
22172;SDS011;11252;50.596;17.648;2023-04-24T14:37:03;69.57;;;60.97;;
22172;SDS011;11252;50.596;17.648;2023-04-24T14:39:30;67.63;;;58.33;;
22172;SDS011;11252;50.596;17.648;2023-04-24T14:41:59;59.40;;;53.00;;
22172;SDS011;11252;50.596;17.648;2023-04-24T14:44:30;48.50;;;42.77;;
22172;SDS011;11252;50.596;17.648;2023-04-24T14:46:58;60.50;;;48.80;;
22172;SDS011;11252;50.596;17.648;2023-04-24T14:49:26;46.73;;;38.83;;
22172;SDS011;11252;50.596;17.648;2023-04-24T14:51:53;61.37;;;49.63;;
22172;SDS011;11252;50.596;17.648;2023-04-24T14:54:21;43.67;;;32.20;;